RYR84KK LEAM-EBCI
Flight info
| Callsign | RYR84KK |
|---|---|
| Flight time | 2h 16m |
| Altitude | 34000 |
| Route | AGIDO M192 ARPEX DCT BAZAS M192 BLN N865 VTB N867 RBO DCT OSTIX N867 DGO L176 LUSEM DCT LULUT DCT ADABI DCT BOKNO UN858 VANAD UN874 BAMES UT191 PODEM UN873 BAZOS DCT BELDI DCT VEKIN Z173 ARVOL |
| Aircraft | B738/M-SDE3FGILRWY/SB1 |
Departure
| Time | 2026-04-27 17:44 |
|---|---|
| Airport | Almería Airport (LEAM) |
Arrival
| Time | 2026-04-27 20:01 |
|---|---|
| Airport | Brussels South Charleroi Airport (EBCI) |
| Time | Latitude | Longitude | Altitude | Speed | Heading |
|---|---|---|---|---|---|
| 2026-04-27 17:23 | 36.84652 | -2.37249 | 69 ft | 0 kts | 112° |
| 2026-04-27 17:40 | 36.84652 | -2.37248 | 69 ft | 1 kts | 112° |
| 2026-04-27 17:40 | 36.84645 | -2.37232 | 65 ft | 3 kts | 133° |
| 2026-04-27 17:40 | 36.84618 | -2.37227 | 67 ft | 7 kts | 189° |
| 2026-04-27 17:40 | 36.84577 | -2.37287 | 65 ft | 12 kts | 253° |
| 2026-04-27 17:41 | 36.84544 | -2.37376 | 59 ft | 11 kts | 207° |
| 2026-04-27 17:41 | 36.84477 | -2.37394 | 61 ft | 11 kts | 234° |
| 2026-04-27 17:41 | 36.84449 | -2.37500 | 58 ft | 16 kts | 252° |
| 2026-04-27 17:41 | 36.84409 | -2.37662 | 57 ft | 23 kts | 253° |
| 2026-04-27 17:42 | 36.84354 | -2.37884 | 63 ft | 30 kts | 253° |
| 2026-04-27 17:42 | 36.84292 | -2.38138 | 57 ft | 31 kts | 253° |
| 2026-04-27 17:42 | 36.84231 | -2.38386 | 58 ft | 29 kts | 253° |
| 2026-04-27 17:42 | 36.84174 | -2.38619 | 63 ft | 27 kts | 253° |
| 2026-04-27 17:43 | 36.84126 | -2.38769 | 59 ft | 12 kts | 220° |
| 2026-04-27 17:43 | 36.84046 | -2.38774 | 60 ft | 12 kts | 148° |
| 2026-04-27 17:43 | 36.84006 | -2.38682 | 61 ft | 12 kts | 109° |
| 2026-04-27 17:43 | 36.84011 | -2.38576 | 55 ft | 15 kts | 72° |
| 2026-04-27 17:44 | 36.84100 | -2.38215 | 58 ft | 76 kts | 73° |
| 2026-04-27 17:44 | 36.84313 | -2.37347 | 58 ft | 131 kts | 73° |
| 2026-04-27 17:44 | 36.84605 | -2.36149 | 432 ft | 146 kts | 75° |
| 2026-04-27 17:44 | 36.84908 | -2.34896 | 1018 ft | 154 kts | 73° |
| 2026-04-27 17:45 | 36.85217 | -2.33614 | 1638 ft | 163 kts | 72° |
| 2026-04-27 17:45 | 36.85578 | -2.32141 | 1883 ft | 190 kts | 72° |
| 2026-04-27 17:45 | 36.85980 | -2.30521 | 2342 ft | 198 kts | 72° |
| 2026-04-27 17:45 | 36.86397 | -2.28851 | 2852 ft | 207 kts | 72° |
| 2026-04-27 17:46 | 36.86828 | -2.27126 | 3505 ft | 210 kts | 72° |
| 2026-04-27 17:46 | 36.87272 | -2.25354 | 4084 ft | 217 kts | 72° |
| 2026-04-27 17:46 | 36.87654 | -2.24190 | 4507 ft | 219 kts | 59° |
| 2026-04-27 17:46 | 36.88656 | -2.22718 | 5038 ft | 231 kts | 39° |
| 2026-04-27 17:47 | 36.90062 | -2.21714 | 5630 ft | 237 kts | 28° |
| 2026-04-27 17:47 | 36.91035 | -2.21077 | 6033 ft | 240 kts | 28° |
| 2026-04-27 17:47 | 36.93032 | -2.19754 | 6865 ft | 246 kts | 27° |
| 2026-04-27 17:47 | 36.94556 | -2.18736 | 7488 ft | 250 kts | 27° |
| 2026-04-27 17:48 | 36.96104 | -2.17699 | 8116 ft | 255 kts | 26° |
| 2026-04-27 17:48 | 36.97769 | -2.16970 | 8697 ft | 255 kts | 359° |
| 2026-04-27 17:48 | 36.99452 | -2.17402 | 9438 ft | 247 kts | 328° |
| 2026-04-27 17:48 | 37.00755 | -2.18776 | 9987 ft | 252 kts | 305° |
| 2026-04-27 17:49 | 37.01713 | -2.20723 | 10160 ft | 275 kts | 297° |
| 2026-04-27 17:49 | 37.02650 | -2.22926 | 10332 ft | 298 kts | 296° |
| 2026-04-27 17:49 | 37.03647 | -2.25314 | 10491 ft | 321 kts | 296° |
| 2026-04-27 17:49 | 37.04712 | -2.27858 | 10812 ft | 336 kts | 296° |
| 2026-04-27 17:50 | 37.05815 | -2.30470 | 11409 ft | 342 kts | 296° |
| 2026-04-27 17:50 | 37.08074 | -2.35770 | 12809 ft | 348 kts | 296° |
| 2026-04-27 17:50 | 37.09225 | -2.38461 | 13505 ft | 352 kts | 296° |
| 2026-04-27 17:51 | 37.10390 | -2.41184 | 14174 ft | 356 kts | 296° |
| 2026-04-27 17:51 | 37.11567 | -2.43934 | 14814 ft | 361 kts | 296° |
| 2026-04-27 17:51 | 37.12760 | -2.46726 | 15469 ft | 365 kts | 296° |
| 2026-04-27 17:51 | 37.13966 | -2.49549 | 16120 ft | 370 kts | 296° |
| 2026-04-27 17:52 | 37.15188 | -2.52410 | 16756 ft | 374 kts | 296° |
| 2026-04-27 17:52 | 37.16423 | -2.55305 | 17391 ft | 379 kts | 296° |
| 2026-04-27 17:52 | 37.17673 | -2.58237 | 18024 ft | 384 kts | 296° |
| 2026-04-27 17:52 | 37.18941 | -2.61206 | 18584 ft | 389 kts | 297° |
| 2026-04-27 17:53 | 37.20595 | -2.63920 | 19109 ft | 398 kts | 316° |
| 2026-04-27 17:53 | 37.22749 | -2.66111 | 19742 ft | 400 kts | 320° |
| 2026-04-27 17:53 | 37.24930 | -2.68299 | 20313 ft | 403 kts | 319° |
| 2026-04-27 17:53 | 37.27130 | -2.70527 | 20793 ft | 408 kts | 319° |
| 2026-04-27 17:54 | 37.29340 | -2.72787 | 21346 ft | 411 kts | 319° |
| 2026-04-27 17:54 | 37.31555 | -2.75071 | 21891 ft | 414 kts | 319° |
| 2026-04-27 17:54 | 37.33784 | -2.77378 | 22418 ft | 416 kts | 319° |
| 2026-04-27 17:54 | 37.36028 | -2.79705 | 22935 ft | 420 kts | 319° |
| 2026-04-27 17:55 | 37.38287 | -2.82048 | 23433 ft | 423 kts | 319° |
| 2026-04-27 17:55 | 37.40563 | -2.84411 | 23875 ft | 426 kts | 319° |
| 2026-04-27 17:55 | 37.42858 | -2.86791 | 24305 ft | 429 kts | 319° |
| 2026-04-27 17:55 | 37.45171 | -2.89179 | 24730 ft | 431 kts | 319° |
| 2026-04-27 17:56 | 37.47499 | -2.91580 | 25104 ft | 435 kts | 318° |
| 2026-04-27 17:56 | 37.49848 | -2.94005 | 25474 ft | 438 kts | 318° |
| 2026-04-27 17:56 | 37.52212 | -2.96448 | 25869 ft | 441 kts | 319° |
| 2026-04-27 17:56 | 37.54586 | -2.98905 | 26277 ft | 443 kts | 318° |
| 2026-04-27 17:57 | 37.56937 | -3.01341 | 26655 ft | 445 kts | 319° |
| 2026-04-27 17:57 | 37.59336 | -3.03828 | 27053 ft | 447 kts | 318° |
| 2026-04-27 17:57 | 37.61746 | -3.06333 | 27385 ft | 451 kts | 319° |
| 2026-04-27 17:57 | 37.64175 | -3.08860 | 27740 ft | 454 kts | 319° |
| 2026-04-27 17:58 | 37.66615 | -3.11401 | 28110 ft | 456 kts | 319° |
| 2026-04-27 17:58 | 37.69069 | -3.13957 | 28449 ft | 459 kts | 319° |
| 2026-04-27 17:58 | 37.71536 | -3.16529 | 28782 ft | 461 kts | 319° |
| 2026-04-27 17:58 | 37.74019 | -3.19121 | 29112 ft | 464 kts | 319° |
| 2026-04-27 17:59 | 37.76507 | -3.21718 | 29459 ft | 465 kts | 319° |
| 2026-04-27 17:59 | 37.79001 | -3.24322 | 29917 ft | 464 kts | 319° |
| 2026-04-27 17:59 | 37.81485 | -3.26918 | 30325 ft | 463 kts | 319° |
| 2026-04-27 17:59 | 37.83963 | -3.29511 | 30741 ft | 461 kts | 318° |
| 2026-04-27 18:00 | 37.86438 | -3.32103 | 31103 ft | 461 kts | 318° |
| 2026-04-27 18:00 | 37.88903 | -3.34688 | 31516 ft | 459 kts | 319° |
| 2026-04-27 18:00 | 37.91355 | -3.37262 | 31939 ft | 457 kts | 319° |
| 2026-04-27 18:00 | 37.93797 | -3.39827 | 32358 ft | 455 kts | 319° |
| 2026-04-27 18:01 | 37.96236 | -3.42392 | 32715 ft | 455 kts | 319° |
| 2026-04-27 18:01 | 37.98670 | -3.44953 | 33070 ft | 455 kts | 319° |
| 2026-04-27 18:01 | 38.01099 | -3.47512 | 33462 ft | 453 kts | 319° |
| 2026-04-27 18:01 | 38.03529 | -3.50074 | 33857 ft | 452 kts | 319° |
| 2026-04-27 18:02 | 38.08404 | -3.55222 | 33916 ft | 458 kts | 319° |
| 2026-04-27 18:02 | 38.13395 | -3.60177 | 33890 ft | 453 kts | 330° |
| 2026-04-27 18:03 | 38.16317 | -3.61650 | 33928 ft | 454 kts | 345° |
| 2026-04-27 18:03 | 38.19449 | -3.62214 | 33914 ft | 458 kts | 359° |
| 2026-04-27 18:03 | 38.25819 | -3.61628 | 33925 ft | 461 kts | 5° |
| 2026-04-27 18:04 | 38.32223 | -3.60891 | 33927 ft | 463 kts | 4° |
| 2026-04-27 18:04 | 38.38611 | -3.60221 | 33928 ft | 464 kts | 4° |
| 2026-04-27 18:05 | 38.45057 | -3.59589 | 33927 ft | 465 kts | 4° |
| 2026-04-27 18:05 | 38.51496 | -3.58967 | 33923 ft | 463 kts | 4° |
| 2026-04-27 18:06 | 38.57917 | -3.58344 | 33929 ft | 462 kts | 4° |
| 2026-04-27 18:06 | 38.64309 | -3.57721 | 33930 ft | 460 kts | 4° |
| 2026-04-27 18:07 | 38.70679 | -3.57098 | 33931 ft | 458 kts | 4° |
| 2026-04-27 18:07 | 38.77027 | -3.56476 | 33934 ft | 457 kts | 4° |
| 2026-04-27 18:08 | 38.83361 | -3.55855 | 33931 ft | 456 kts | 4° |
| 2026-04-27 18:08 | 38.89691 | -3.55233 | 33925 ft | 456 kts | 3° |
| 2026-04-27 18:09 | 38.96020 | -3.54610 | 33930 ft | 456 kts | 3° |
| 2026-04-27 18:09 | 39.02360 | -3.53984 | 33933 ft | 457 kts | 3° |
| 2026-04-27 18:10 | 39.08703 | -3.53354 | 33936 ft | 458 kts | 3° |
| 2026-04-27 18:10 | 39.15059 | -3.52721 | 33934 ft | 458 kts | 3° |
| 2026-04-27 18:11 | 39.21422 | -3.52087 | 33938 ft | 459 kts | 3° |
| 2026-04-27 18:11 | 39.27787 | -3.51451 | 33942 ft | 459 kts | 3° |
| 2026-04-27 18:12 | 39.34157 | -3.50813 | 33952 ft | 459 kts | 3° |
| 2026-04-27 18:12 | 39.40533 | -3.50174 | 33953 ft | 459 kts | 3° |
| 2026-04-27 18:13 | 39.46907 | -3.49534 | 33951 ft | 459 kts | 3° |
| 2026-04-27 18:13 | 39.53277 | -3.48893 | 33960 ft | 459 kts | 3° |
| 2026-04-27 18:14 | 39.59600 | -3.48256 | 33956 ft | 459 kts | 2° |
| 2026-04-27 18:14 | 39.66011 | -3.47614 | 33956 ft | 458 kts | 2° |
| 2026-04-27 18:15 | 39.72324 | -3.46981 | 33963 ft | 458 kts | 2° |
| 2026-04-27 18:15 | 39.78674 | -3.46319 | 33955 ft | 458 kts | 4° |
| 2026-04-27 18:16 | 39.84994 | -3.45175 | 33963 ft | 459 kts | 7° |
| 2026-04-27 18:16 | 39.91293 | -3.43830 | 33963 ft | 459 kts | 7° |
| 2026-04-27 18:17 | 39.97591 | -3.42512 | 33957 ft | 458 kts | 7° |
| 2026-04-27 18:17 | 40.03890 | -3.41234 | 33957 ft | 458 kts | 7° |
| 2026-04-27 18:18 | 40.10185 | -3.39969 | 33961 ft | 457 kts | 7° |
| 2026-04-27 18:18 | 40.16473 | -3.38705 | 33969 ft | 457 kts | 7° |
| 2026-04-27 18:19 | 40.22748 | -3.37439 | 33986 ft | 456 kts | 7° |
| 2026-04-27 18:19 | 40.29022 | -3.36171 | 33982 ft | 456 kts | 7° |
| 2026-04-27 18:20 | 40.35290 | -3.34901 | 33990 ft | 456 kts | 7° |
| 2026-04-27 18:20 | 40.41556 | -3.33629 | 33994 ft | 455 kts | 7° |
| 2026-04-27 18:21 | 40.47820 | -3.32355 | 33997 ft | 456 kts | 6° |
| 2026-04-27 18:21 | 40.54088 | -3.31078 | 33990 ft | 456 kts | 6° |
| 2026-04-27 18:22 | 40.60353 | -3.29799 | 33993 ft | 455 kts | 6° |
| 2026-04-27 18:22 | 40.66618 | -3.28518 | 33989 ft | 455 kts | 6° |
| 2026-04-27 18:23 | 40.72880 | -3.27235 | 33991 ft | 456 kts | 6° |
| 2026-04-27 18:23 | 40.79145 | -3.25948 | 33994 ft | 456 kts | 6° |
| 2026-04-27 18:24 | 40.85414 | -3.24659 | 33997 ft | 456 kts | 6° |
| 2026-04-27 18:24 | 40.91682 | -3.23291 | 34003 ft | 457 kts | 7° |
| 2026-04-27 18:25 | 40.97906 | -3.21880 | 34010 ft | 457 kts | 7° |
| 2026-04-27 18:25 | 41.04172 | -3.20463 | 34016 ft | 457 kts | 7° |
| 2026-04-27 18:26 | 41.10442 | -3.19052 | 34028 ft | 457 kts | 7° |
| 2026-04-27 18:26 | 41.16713 | -3.17641 | 34032 ft | 457 kts | 7° |
| 2026-04-27 18:27 | 41.22986 | -3.16227 | 34032 ft | 457 kts | 7° |
| 2026-04-27 18:27 | 41.29260 | -3.14809 | 34035 ft | 457 kts | 7° |
| 2026-04-27 18:28 | 41.35529 | -3.13389 | 34051 ft | 457 kts | 7° |
| 2026-04-27 18:28 | 41.41799 | -3.11967 | 34042 ft | 457 kts | 7° |
| 2026-04-27 18:29 | 41.48065 | -3.10543 | 34044 ft | 456 kts | 7° |
| 2026-04-27 18:29 | 41.54319 | -3.09121 | 34060 ft | 456 kts | 7° |
| 2026-04-27 18:30 | 41.60573 | -3.07704 | 34045 ft | 455 kts | 7° |
| 2026-04-27 18:30 | 41.66811 | -3.06287 | 34047 ft | 454 kts | 7° |
| 2026-04-27 18:31 | 41.73035 | -3.04869 | 34048 ft | 453 kts | 7° |
| 2026-04-27 18:31 | 41.79252 | -3.03443 | 34064 ft | 453 kts | 7° |
| 2026-04-27 18:32 | 41.85466 | -3.02010 | 34076 ft | 453 kts | 7° |
| 2026-04-27 18:32 | 41.91685 | -3.00574 | 34083 ft | 454 kts | 7° |
| 2026-04-27 18:33 | 41.97863 | -2.99145 | 34083 ft | 454 kts | 7° |
| 2026-04-27 18:33 | 42.04099 | -2.97700 | 34095 ft | 455 kts | 7° |
| 2026-04-27 18:34 | 42.10356 | -2.96247 | 34101 ft | 457 kts | 7° |
| 2026-04-27 18:34 | 42.15610 | -2.95025 | 34085 ft | 458 kts | 7° |
| 2026-04-27 18:35 | 42.21889 | -2.93561 | 34088 ft | 459 kts | 7° |
| 2026-04-27 18:35 | 42.28143 | -2.92101 | 34087 ft | 459 kts | 7° |
| 2026-04-27 18:36 | 42.34439 | -2.90626 | 34093 ft | 459 kts | 7° |
| 2026-04-27 18:36 | 42.40780 | -2.89130 | 34102 ft | 460 kts | 9° |
| 2026-04-27 18:37 | 42.43823 | -2.87939 | 34081 ft | 463 kts | 20° |
| 2026-04-27 18:37 | 42.46722 | -2.86022 | 34094 ft | 465 kts | 30° |
| 2026-04-27 18:37 | 42.51800 | -2.80569 | 34094 ft | 467 kts | 41° |
| 2026-04-27 18:38 | 42.56603 | -2.74624 | 34096 ft | 467 kts | 41° |
| 2026-04-27 18:38 | 42.61422 | -2.68701 | 34098 ft | 468 kts | 41° |
| 2026-04-27 18:39 | 42.66269 | -2.62812 | 34105 ft | 468 kts | 40° |
| 2026-04-27 18:39 | 42.71124 | -2.56929 | 34117 ft | 467 kts | 40° |
| 2026-04-27 18:40 | 42.75977 | -2.51035 | 34117 ft | 468 kts | 40° |
| 2026-04-27 18:40 | 42.80824 | -2.45130 | 34117 ft | 468 kts | 40° |
| 2026-04-27 18:41 | 42.85666 | -2.39217 | 34117 ft | 467 kts | 40° |
| 2026-04-27 18:41 | 42.90505 | -2.33295 | 34111 ft | 467 kts | 41° |
| 2026-04-27 18:42 | 42.94523 | -2.28368 | 34101 ft | 467 kts | 40° |
| 2026-04-27 18:42 | 43.00170 | -2.21428 | 34126 ft | 467 kts | 41° |
| 2026-04-27 18:43 | 43.05001 | -2.15466 | 34120 ft | 468 kts | 41° |
| 2026-04-27 18:43 | 43.09837 | -2.09486 | 34124 ft | 469 kts | 41° |
| 2026-04-27 18:44 | 43.14684 | -2.03486 | 34127 ft | 470 kts | 41° |
| 2026-04-27 18:44 | 43.19538 | -1.97466 | 34126 ft | 471 kts | 41° |
| 2026-04-27 18:45 | 43.24396 | -1.91425 | 34133 ft | 472 kts | 41° |
| 2026-04-27 18:45 | 43.29253 | -1.85373 | 34132 ft | 472 kts | 41° |
| 2026-04-27 18:46 | 43.34554 | -1.80152 | 34139 ft | 469 kts | 27° |
| 2026-04-27 18:46 | 43.40248 | -1.75781 | 34124 ft | 469 kts | 30° |
| 2026-04-27 18:47 | 43.45719 | -1.70857 | 34131 ft | 471 kts | 32° |
| 2026-04-27 18:47 | 43.51142 | -1.65803 | 34134 ft | 471 kts | 32° |
| 2026-04-27 18:48 | 43.56560 | -1.60822 | 34132 ft | 471 kts | 32° |
| 2026-04-27 18:48 | 43.62038 | -1.55836 | 34127 ft | 472 kts | 31° |
| 2026-04-27 18:49 | 43.67527 | -1.50847 | 34116 ft | 473 kts | 31° |
| 2026-04-27 18:49 | 43.73022 | -1.45841 | 34118 ft | 473 kts | 31° |
| 2026-04-27 18:50 | 43.78520 | -1.40817 | 34110 ft | 474 kts | 31° |
| 2026-04-27 18:50 | 43.84022 | -1.35777 | 34121 ft | 474 kts | 31° |
| 2026-04-27 18:51 | 43.89528 | -1.30722 | 34108 ft | 475 kts | 31° |
| 2026-04-27 18:51 | 43.95035 | -1.25655 | 34106 ft | 475 kts | 32° |
| 2026-04-27 18:52 | 44.00541 | -1.20577 | 34094 ft | 475 kts | 32° |
| 2026-04-27 18:53 | 44.08799 | -1.12940 | 34085 ft | 475 kts | 32° |
| 2026-04-27 18:53 | 44.14301 | -1.07837 | 34086 ft | 475 kts | 32° |
| 2026-04-27 18:54 | 44.19801 | -1.02724 | 34085 ft | 475 kts | 32° |
| 2026-04-27 18:54 | 44.25293 | -0.97607 | 34077 ft | 475 kts | 32° |
| 2026-04-27 18:55 | 44.30782 | -0.92479 | 34077 ft | 475 kts | 32° |
| 2026-04-27 18:55 | 44.36268 | -0.87345 | 34076 ft | 475 kts | 32° |
| 2026-04-27 18:56 | 44.41882 | -0.82526 | 34086 ft | 472 kts | 22° |
| 2026-04-27 18:56 | 44.47896 | -0.78868 | 34081 ft | 471 kts | 20° |
| 2026-04-27 18:57 | 44.53953 | -0.75314 | 34071 ft | 472 kts | 20° |
| 2026-04-27 18:57 | 44.59996 | -0.71689 | 34075 ft | 473 kts | 20° |
| 2026-04-27 18:58 | 44.66038 | -0.67999 | 34075 ft | 474 kts | 21° |
| 2026-04-27 18:58 | 44.72079 | -0.64282 | 34078 ft | 474 kts | 21° |
| 2026-04-27 18:59 | 44.78127 | -0.60554 | 34075 ft | 475 kts | 21° |
| 2026-04-27 18:59 | 44.84176 | -0.56818 | 34077 ft | 475 kts | 21° |
| 2026-04-27 19:00 | 44.90226 | -0.53074 | 34073 ft | 475 kts | 21° |
| 2026-04-27 19:00 | 44.96277 | -0.49321 | 34079 ft | 475 kts | 21° |
| 2026-04-27 19:01 | 45.02287 | -0.45586 | 34086 ft | 475 kts | 21° |
| 2026-04-27 19:01 | 45.08340 | -0.41815 | 34077 ft | 475 kts | 21° |
| 2026-04-27 19:02 | 45.14396 | -0.38033 | 34073 ft | 475 kts | 21° |
| 2026-04-27 19:02 | 45.20442 | -0.34248 | 34090 ft | 475 kts | 21° |
| 2026-04-27 19:03 | 45.26489 | -0.30454 | 34081 ft | 475 kts | 21° |
| 2026-04-27 19:03 | 45.32535 | -0.26652 | 34076 ft | 475 kts | 21° |
| 2026-04-27 19:04 | 45.38573 | -0.22845 | 34085 ft | 475 kts | 21° |
| 2026-04-27 19:04 | 45.44608 | -0.19032 | 34077 ft | 475 kts | 20° |
| 2026-04-27 19:05 | 45.50643 | -0.15210 | 34075 ft | 474 kts | 20° |
| 2026-04-27 19:05 | 45.56668 | -0.11385 | 34077 ft | 474 kts | 21° |
| 2026-04-27 19:06 | 45.62696 | -0.07550 | 34079 ft | 475 kts | 20° |
| 2026-04-27 19:06 | 45.68732 | -0.03700 | 34082 ft | 475 kts | 20° |
| 2026-04-27 19:07 | 45.74778 | 0.00164 | 34078 ft | 476 kts | 20° |
| 2026-04-27 19:07 | 45.80830 | 0.04043 | 34076 ft | 477 kts | 20° |
| 2026-04-27 19:08 | 45.86887 | 0.07934 | 34081 ft | 477 kts | 20° |
| 2026-04-27 19:08 | 45.92947 | 0.11837 | 34082 ft | 478 kts | 20° |
| 2026-04-27 19:09 | 45.99012 | 0.15752 | 34097 ft | 478 kts | 20° |
| 2026-04-27 19:09 | 46.05083 | 0.19680 | 34091 ft | 479 kts | 20° |
| 2026-04-27 19:10 | 46.11124 | 0.23598 | 34094 ft | 480 kts | 20° |
| 2026-04-27 19:10 | 46.17210 | 0.27555 | 34122 ft | 480 kts | 20° |
| 2026-04-27 19:11 | 46.23312 | 0.31533 | 34106 ft | 482 kts | 19° |
| 2026-04-27 19:11 | 46.29427 | 0.35529 | 34102 ft | 483 kts | 19° |
| 2026-04-27 19:12 | 46.35552 | 0.39540 | 34103 ft | 484 kts | 19° |
| 2026-04-27 19:12 | 46.41684 | 0.43568 | 34101 ft | 484 kts | 19° |
| 2026-04-27 19:13 | 46.47818 | 0.47606 | 34100 ft | 484 kts | 19° |
| 2026-04-27 19:13 | 46.53952 | 0.51654 | 34102 ft | 484 kts | 19° |
| 2026-04-27 19:14 | 46.60268 | 0.54655 | 34116 ft | 474 kts | 6° |
| 2026-04-27 19:14 | 46.66710 | 0.56667 | 34104 ft | 473 kts | 6° |
| 2026-04-27 19:15 | 46.73148 | 0.58698 | 34111 ft | 473 kts | 6° |
| 2026-04-27 19:15 | 46.79574 | 0.60804 | 34112 ft | 473 kts | 6° |
| 2026-04-27 19:16 | 46.85998 | 0.62938 | 34122 ft | 473 kts | 6° |
| 2026-04-27 19:16 | 46.92418 | 0.65074 | 34118 ft | 473 kts | 6° |
| 2026-04-27 19:17 | 46.98834 | 0.67210 | 34138 ft | 473 kts | 7° |
| 2026-04-27 19:17 | 47.05255 | 0.69284 | 34118 ft | 470 kts | 2° |
| 2026-04-27 19:18 | 47.11692 | 0.70119 | 34124 ft | 463 kts | 356° |
| 2026-04-27 19:18 | 47.18118 | 0.70631 | 34150 ft | 462 kts | 356° |
| 2026-04-27 19:19 | 47.24541 | 0.71230 | 34137 ft | 463 kts | 358° |
| 2026-04-27 19:19 | 47.30962 | 0.71898 | 34129 ft | 462 kts | 358° |
| 2026-04-27 19:20 | 47.36293 | 0.72463 | 34124 ft | 462 kts | 358° |
| 2026-04-27 19:20 | 47.42741 | 0.73143 | 34143 ft | 461 kts | 358° |
| 2026-04-27 19:21 | 47.49144 | 0.73909 | 34123 ft | 465 kts | 2° |
| 2026-04-27 19:21 | 47.55386 | 0.76507 | 34139 ft | 472 kts | 14° |
| 2026-04-27 19:22 | 47.61635 | 0.79733 | 34148 ft | 472 kts | 14° |
| 2026-04-27 19:22 | 47.67815 | 0.82847 | 34138 ft | 472 kts | 13° |
| 2026-04-27 19:23 | 47.74039 | 0.85924 | 34143 ft | 471 kts | 13° |
| 2026-04-27 19:23 | 47.80262 | 0.89002 | 34188 ft | 471 kts | 13° |
| 2026-04-27 19:24 | 47.86484 | 0.92101 | 34158 ft | 472 kts | 14° |
| 2026-04-27 19:24 | 47.92704 | 0.95245 | 34158 ft | 472 kts | 14° |
| 2026-04-27 19:25 | 47.98916 | 0.98396 | 34160 ft | 472 kts | 14° |
| 2026-04-27 19:25 | 48.05129 | 1.01552 | 34173 ft | 471 kts | 14° |
| 2026-04-27 19:26 | 48.11335 | 1.04710 | 34165 ft | 471 kts | 14° |
| 2026-04-27 19:26 | 48.17532 | 1.07872 | 34166 ft | 470 kts | 14° |
| 2026-04-27 19:27 | 48.23722 | 1.11034 | 34188 ft | 470 kts | 14° |
| 2026-04-27 19:27 | 48.29915 | 1.14189 | 34166 ft | 469 kts | 14° |
| 2026-04-27 19:28 | 48.36097 | 1.17345 | 34175 ft | 469 kts | 14° |
| 2026-04-27 19:28 | 48.42266 | 1.20504 | 34177 ft | 468 kts | 14° |
| 2026-04-27 19:29 | 48.48423 | 1.23667 | 34182 ft | 467 kts | 14° |
| 2026-04-27 19:29 | 48.54573 | 1.26832 | 34179 ft | 466 kts | 14° |
| 2026-04-27 19:30 | 48.60715 | 1.29951 | 34181 ft | 465 kts | 14° |
| 2026-04-27 19:30 | 48.66863 | 1.33036 | 34200 ft | 465 kts | 14° |
| 2026-04-27 19:31 | 48.72966 | 1.36112 | 34193 ft | 466 kts | 14° |
| 2026-04-27 19:31 | 48.79112 | 1.39226 | 34184 ft | 466 kts | 14° |
| 2026-04-27 19:32 | 48.85258 | 1.42350 | 34186 ft | 466 kts | 14° |
| 2026-04-27 19:32 | 48.91404 | 1.45482 | 34194 ft | 466 kts | 14° |
| 2026-04-27 19:33 | 48.97558 | 1.48574 | 34192 ft | 465 kts | 11° |
| 2026-04-27 19:33 | 49.03860 | 1.50280 | 34195 ft | 459 kts | 3° |
| 2026-04-27 19:34 | 49.10193 | 1.51593 | 34203 ft | 460 kts | 4° |
| 2026-04-27 19:34 | 49.16527 | 1.53038 | 34189 ft | 460 kts | 4° |
| 2026-04-27 19:35 | 49.22839 | 1.54658 | 34176 ft | 463 kts | 11° |
| 2026-04-27 19:35 | 49.25872 | 1.56382 | 34190 ft | 468 kts | 23° |
| 2026-04-27 19:35 | 49.28680 | 1.58948 | 34185 ft | 473 kts | 34° |
| 2026-04-27 19:36 | 49.33534 | 1.65802 | 34197 ft | 475 kts | 42° |
| 2026-04-27 19:36 | 49.38240 | 1.72918 | 33889 ft | 477 kts | 42° |
| 2026-04-27 19:36 | 49.40622 | 1.76464 | 33319 ft | 475 kts | 41° |
| 2026-04-27 19:37 | 49.42997 | 1.79967 | 32855 ft | 470 kts | 41° |
| 2026-04-27 19:37 | 49.45348 | 1.83422 | 32396 ft | 466 kts | 41° |
| 2026-04-27 19:37 | 49.47684 | 1.86852 | 31953 ft | 462 kts | 41° |
| 2026-04-27 19:37 | 49.49994 | 1.90254 | 31524 ft | 458 kts | 41° |
| 2026-04-27 19:38 | 49.52286 | 1.93637 | 31114 ft | 454 kts | 41° |
| 2026-04-27 19:38 | 49.54557 | 1.96995 | 30690 ft | 451 kts | 41° |
| 2026-04-27 19:38 | 49.56780 | 2.00289 | 30270 ft | 448 kts | 41° |
| 2026-04-27 19:38 | 49.59045 | 2.03649 | 29775 ft | 445 kts | 41° |
| 2026-04-27 19:39 | 49.61231 | 2.06897 | 29344 ft | 440 kts | 41° |
| 2026-04-27 19:39 | 49.63450 | 2.10197 | 28894 ft | 435 kts | 41° |
| 2026-04-27 19:39 | 49.65587 | 2.13381 | 28473 ft | 431 kts | 41° |
| 2026-04-27 19:39 | 49.67733 | 2.16580 | 28048 ft | 427 kts | 41° |
| 2026-04-27 19:40 | 49.69856 | 2.19750 | 27612 ft | 423 kts | 41° |
| 2026-04-27 19:40 | 49.71961 | 2.22898 | 27197 ft | 420 kts | 41° |
| 2026-04-27 19:40 | 49.74051 | 2.26025 | 26790 ft | 416 kts | 41° |
| 2026-04-27 19:40 | 49.76126 | 2.29135 | 26352 ft | 414 kts | 41° |
| 2026-04-27 19:41 | 49.78192 | 2.32233 | 25941 ft | 412 kts | 41° |
| 2026-04-27 19:41 | 49.80240 | 2.35311 | 25520 ft | 409 kts | 41° |
| 2026-04-27 19:41 | 49.82277 | 2.38374 | 25111 ft | 407 kts | 41° |
| 2026-04-27 19:41 | 49.84299 | 2.41420 | 24708 ft | 404 kts | 41° |
| 2026-04-27 19:42 | 49.86309 | 2.44451 | 24306 ft | 402 kts | 41° |
| 2026-04-27 19:42 | 49.88306 | 2.47467 | 23895 ft | 400 kts | 41° |
| 2026-04-27 19:42 | 49.90294 | 2.50471 | 23449 ft | 398 kts | 41° |
| 2026-04-27 19:42 | 49.92270 | 2.53461 | 22994 ft | 395 kts | 41° |
| 2026-04-27 19:43 | 49.94227 | 2.56426 | 22615 ft | 391 kts | 41° |
| 2026-04-27 19:43 | 49.96167 | 2.59369 | 22190 ft | 389 kts | 41° |
| 2026-04-27 19:43 | 49.98094 | 2.62297 | 21765 ft | 386 kts | 41° |
| 2026-04-27 19:43 | 50.00004 | 2.65204 | 21355 ft | 383 kts | 41° |
| 2026-04-27 19:44 | 50.01902 | 2.68095 | 20961 ft | 380 kts | 41° |
| 2026-04-27 19:44 | 50.03784 | 2.70965 | 20563 ft | 378 kts | 41° |
| 2026-04-27 19:44 | 50.05655 | 2.73820 | 20174 ft | 376 kts | 41° |
| 2026-04-27 19:44 | 50.07514 | 2.76662 | 19783 ft | 374 kts | 41° |
| 2026-04-27 19:45 | 50.09364 | 2.79493 | 19397 ft | 372 kts | 41° |
| 2026-04-27 19:45 | 50.11202 | 2.82308 | 19010 ft | 370 kts | 41° |
| 2026-04-27 19:45 | 50.13036 | 2.85119 | 18620 ft | 369 kts | 41° |
| 2026-04-27 19:45 | 50.14860 | 2.87919 | 18207 ft | 367 kts | 41° |
| 2026-04-27 19:46 | 50.16675 | 2.90710 | 17792 ft | 366 kts | 41° |
| 2026-04-27 19:46 | 50.18479 | 2.93487 | 17382 ft | 363 kts | 41° |
| 2026-04-27 19:46 | 50.20270 | 2.96246 | 16988 ft | 361 kts | 41° |
| 2026-04-27 19:46 | 50.22049 | 2.98990 | 16598 ft | 358 kts | 41° |
| 2026-04-27 19:47 | 50.23813 | 3.01713 | 16221 ft | 355 kts | 41° |
| 2026-04-27 19:47 | 50.25565 | 3.04422 | 15842 ft | 353 kts | 42° |
| 2026-04-27 19:47 | 50.27305 | 3.07113 | 15466 ft | 351 kts | 42° |
| 2026-04-27 19:47 | 50.29032 | 3.09789 | 15095 ft | 349 kts | 42° |
| 2026-04-27 19:48 | 50.30749 | 3.12452 | 14721 ft | 347 kts | 42° |
| 2026-04-27 19:48 | 50.32457 | 3.15103 | 14344 ft | 345 kts | 42° |
| 2026-04-27 19:48 | 50.34155 | 3.17742 | 13975 ft | 343 kts | 42° |
| 2026-04-27 19:48 | 50.35683 | 3.20595 | 13533 ft | 345 kts | 59° |
| 2026-04-27 19:49 | 50.36475 | 3.24192 | 12609 ft | 359 kts | 81° |
| 2026-04-27 19:49 | 50.36674 | 3.28156 | 11815 ft | 368 kts | 87° |
| 2026-04-27 19:49 | 50.36776 | 3.32102 | 11290 ft | 367 kts | 88° |
| 2026-04-27 19:49 | 50.36863 | 3.36069 | 10854 ft | 362 kts | 88° |
| 2026-04-27 19:50 | 50.36951 | 3.39988 | 10415 ft | 358 kts | 88° |
| 2026-04-27 19:50 | 50.37045 | 3.43870 | 9954 ft | 355 kts | 88° |
| 2026-04-27 19:50 | 50.37145 | 3.47711 | 9500 ft | 351 kts | 87° |
| 2026-04-27 19:50 | 50.37246 | 3.51504 | 9011 ft | 347 kts | 87° |
| 2026-04-27 19:51 | 50.37349 | 3.55268 | 8537 ft | 344 kts | 87° |
| 2026-04-27 19:51 | 50.37451 | 3.58982 | 8107 ft | 340 kts | 86° |
| 2026-04-27 19:51 | 50.37553 | 3.62683 | 7648 ft | 337 kts | 86° |
| 2026-04-27 19:51 | 50.37652 | 3.66331 | 7203 ft | 334 kts | 86° |
| 2026-04-27 19:52 | 50.37750 | 3.69937 | 6794 ft | 329 kts | 86° |
| 2026-04-27 19:52 | 50.37813 | 3.72282 | 6714 ft | 320 kts | 86° |
| 2026-04-27 19:52 | 50.37932 | 3.76815 | 6592 ft | 303 kts | 86° |
| 2026-04-27 19:52 | 50.38016 | 3.80043 | 6510 ft | 291 kts | 86° |
| 2026-04-27 19:53 | 50.38173 | 3.86148 | 6261 ft | 273 kts | 86° |
| 2026-04-27 19:53 | 50.38249 | 3.89098 | 5980 ft | 270 kts | 86° |
| 2026-04-27 19:53 | 50.38323 | 3.92035 | 5675 ft | 269 kts | 86° |
| 2026-04-27 19:54 | 50.38396 | 3.94958 | 5388 ft | 268 kts | 86° |
| 2026-04-27 19:54 | 50.38468 | 3.97862 | 5102 ft | 266 kts | 86° |
| 2026-04-27 19:54 | 50.38539 | 4.00758 | 4801 ft | 265 kts | 87° |
| 2026-04-27 19:54 | 50.38607 | 4.03607 | 4630 ft | 255 kts | 86° |
| 2026-04-27 19:55 | 50.38672 | 4.06310 | 4505 ft | 240 kts | 86° |
| 2026-04-27 19:55 | 50.38732 | 4.08864 | 4407 ft | 230 kts | 86° |
| 2026-04-27 19:55 | 50.38791 | 4.11333 | 4313 ft | 222 kts | 86° |
| 2026-04-27 19:55 | 50.38845 | 4.13675 | 4255 ft | 209 kts | 86° |
| 2026-04-27 19:56 | 50.38896 | 4.15903 | 4047 ft | 200 kts | 86° |
| 2026-04-27 19:56 | 50.38944 | 4.18033 | 3858 ft | 191 kts | 86° |
| 2026-04-27 19:56 | 50.38991 | 4.20078 | 3660 ft | 185 kts | 86° |
| 2026-04-27 19:56 | 50.39157 | 4.21998 | 3446 ft | 178 kts | 67° |
| 2026-04-27 19:57 | 50.39679 | 4.23703 | 3262 ft | 170 kts | 65° |
| 2026-04-27 19:57 | 50.40168 | 4.25346 | 3094 ft | 163 kts | 65° |
| 2026-04-27 19:57 | 50.40635 | 4.26936 | 2917 ft | 159 kts | 65° |
| 2026-04-27 19:57 | 50.41097 | 4.28513 | 2722 ft | 159 kts | 64° |
| 2026-04-27 19:58 | 50.41559 | 4.30088 | 2524 ft | 158 kts | 65° |
| 2026-04-27 19:58 | 50.42016 | 4.31652 | 2317 ft | 158 kts | 65° |
| 2026-04-27 19:58 | 50.42471 | 4.33206 | 2102 ft | 155 kts | 64° |
| 2026-04-27 19:58 | 50.42917 | 4.34733 | 1907 ft | 154 kts | 64° |
| 2026-04-27 19:59 | 50.43356 | 4.36236 | 1712 ft | 148 kts | 64° |
| 2026-04-27 19:59 | 50.43767 | 4.37648 | 1571 ft | 140 kts | 64° |
| 2026-04-27 19:59 | 50.44174 | 4.39050 | 1353 ft | 139 kts | 64° |
| 2026-04-27 19:59 | 50.44572 | 4.40428 | 1161 ft | 139 kts | 63° |
| 2026-04-27 20:00 | 50.44976 | 4.41811 | 978 ft | 141 kts | 65° |
| 2026-04-27 20:00 | 50.45385 | 4.43226 | 773 ft | 143 kts | 65° |
| 2026-04-27 20:00 | 50.45797 | 4.44642 | 603 ft | 141 kts | 64° |
| 2026-04-27 20:00 | 50.46142 | 4.45825 | 594 ft | 89 kts | 65° |
| 2026-04-27 20:01 | 50.46323 | 4.46446 | 590 ft | 50 kts | 66° |
| 2026-04-27 20:01 | 50.46435 | 4.46833 | 593 ft | 11 kts | 65° |
| 2026-04-27 20:01 | 50.46498 | 4.46893 | 593 ft | 11 kts | 359° |
| 2026-04-27 20:01 | 50.46555 | 4.46863 | 593 ft | 7 kts | 336° |
| 2026-04-27 20:02 | 50.46593 | 4.46836 | 592 ft | 2 kts | 336° |
| 2026-04-27 20:02 | 50.46613 | 4.46821 | 591 ft | 4 kts | 335° |
| 2026-04-27 20:02 | 50.46624 | 4.46813 | 591 ft | 2 kts | 335° |
| 2026-04-27 20:02 | 50.46646 | 4.46798 | 590 ft | 5 kts | 335° |
| 2026-04-27 20:03 | 50.46680 | 4.46764 | 588 ft | 7 kts | 312° |
| 2026-04-27 20:03 | 50.46680 | 4.46718 | 588 ft | 2 kts | 248° |
| 2026-04-27 20:03 | 50.46677 | 4.46695 | 588 ft | 3 kts | 271° |
| 2026-04-27 20:03 | 50.46693 | 4.46665 | 586 ft | 5 kts | 337° |
| 2026-04-27 20:04 | 50.46725 | 4.46645 | 585 ft | 4 kts | 336° |
| 2026-04-27 20:04 | 50.46736 | 4.46637 | 585 ft | 0 kts | 336° |